Menindee, New South Wales

11:37 AM AEST on July 29, 2016 (GMT +1000)
Broken Hill | | Change Station

Elev 958 ft 32.00 °S, 141.47 °E | Updated 37 minutes ago

Clear
Clear
57 °F
Feels Like 57 °F
N
8
Wind Variable Wind from NW

Today
High -- | Low -- °F
--% Chance of Precip.
Yesterday
High -- | Low -- °F
Precip. -- in
Pressure 30.30 in
Visibility 6.2 miles
Clouds
Dew Point 41 °F
Humidity 55%
Rainfall 0.00 in
Snow Depth Not available.
7:22 AM 5:51 PM
Waning Crescent, 27% visible
METAR YBHI 290100Z AUTO 31007KT 270V330 9999 // NCD 14/05 Q1026
Pressure 30.30 in
Visibility 6.2 miles
Clouds
Dew Point 41 °F
Humidity 55%
Rainfall 0.00 in
Snow Depth Not available.
7:22 AM 5:51 PM
Waning Crescent, 27% visible
METAR YBHI 290100Z AUTO 31007KT 270V330 9999 // NCD 14/05 Q1026

10-Day Weather Forecast

No radar image for this location.
×

Almanac

Astronomy

Jul. 29, 2016 Rise Set
Actual Time
Civil Twilight
Nautical Twilight
Astronomical Twilight
Moon
Length of Visible Light
Length of Day
Tomorrow will be .
, % of the Moon is Illuminated

Today's Extremes

Country Highs Country Lows

Community

WunderPhotos

Upload Photos

1,928,251 photos uploaded!

WunderBlog® & News

Nearby

Air Quality

  Air Quality AQ Index Pollutant
Not available.

Snow Depth

Station Depth Elevation

Earthquake Activity

City Distance Mag. Time & Date
Minimum magnitude displayed is 2.5.

Coastal Water Temperatures

Place Temperature

Stations

Nearby Weather Stations

Station Location Temp. Windchill Dew Point Humidity Wind Precip. Elev Updated Type